Latest Weather Observations for Adelaide Airport

IDS60801

Issued at 12:35 pm CDT Saturday 1 November 2014 (issued every 30 minutes, with the page automatically refreshed every 10 minutes)

About weather observations | Map of weather stations | Latest weather observations for SA | Other Formats
Station Details ID: 023034 Name: ADELAIDE AIRPORT Lat: -34.95 Lon: 138.52 Height: 2.0 m
Data from the previous 72 hours. | See also: Recent months at Adelaide Airport
Date/Time
CDT
Temp
°C
App
Temp
°C
Dew
Point
Rel
Hum
%
Delta-T
°C
Wind Press
QNH
hPa
Press
MSL
hPa
Rain
since 9 am
mm
Dir
 
Spd
km/h
Gust
km/h
Spd
kts
Gust
kts
01/12:30pm 16.4 7.6 1.4 36 6.6 SSW 37 48 20 26 1017.8 - 0.0
01/12:00pm 16.2 8.5 3.6 43 5.8 SW 33 48 18 26 1017.6 1017.6 0.0
01/11:37am 16.1 7.6 3.4 42 5.8 SW 37 56 20 30 1017.4 - 0.0
01/11:30am 15.2 7.2 3.9 47 5.2 SW 35 46 19 25 1017.3 - 0.0
01/11:00am 15.8 8.4 5.0 48 5.1 SW 33 44 18 24 1017.0 - 0.0
01/10:30am 14.4 5.7 3.9 49 4.8 SW 39 59 21 32 1016.6 - 0.0
01/10:23am 14.5 6.1 5.4 54 4.3 SW 39 59 21 32 1016.6 - 0.0
01/10:00am 15.4 7.1 4.2 47 5.2 SW 37 48 20 26 1016.2 - 0.0
01/09:30am 15.4 6.8 4.7 49 5.0 SW 39 52 21 28 1015.6 - 0.0
01/09:00am 15.2 6.3 5.0 50 4.8 SW 41 56 22 30 1015.0 1015.0 2.2
01/08:30am 14.6 6.1 5.3 53 4.4 SW 39 54 21 29 1014.2 - 2.2
01/08:00am 14.3 6.8 6.4 59 3.8 SSW 35 50 19 27 1013.6 - 2.2
01/07:30am 14.1 6.2 6.2 59 3.8 SW 37 52 20 28 1012.9 - 2.2
01/07:03am 13.9 7.1 7.1 63 3.3 SW 32 52 17 28 1012.3 - 2.2
01/07:00am 13.9 6.6 7.1 63 3.3 SW 35 52 19 28 1012.2 - 2.2
01/06:30am 14.1 5.9 6.4 60 3.7 SW 39 52 21 28 1011.6 - 2.2
01/06:00am 13.7 4.8 5.1 56 4.0 SW 41 54 22 29 1011.1 1011.1 2.2
01/05:30am 13.7 5.3 5.7 58 3.8 SW 39 52 21 28 1010.5 - 2.2
01/05:00am 13.8 5.2 4.7 54 4.2 SW 39 52 21 28 1010.2 - 2.2
01/04:30am 13.9 5.2 5.9 58 3.8 SW 41 56 22 30 1009.6 - 2.2
01/04:09am 14.3 5.7 8.3 67 3.0 SW 43 61 23 33 1009.2 - 2.2
01/04:00am 14.2 6.5 8.7 69 2.8 SW 39 56 21 30 1009.0 - 2.2
01/03:44am 14.2 6.9 10.2 77 2.1 SW 39 57 21 31 1008.5 - 2.2
01/03:30am 14.4 8.1 11.2 81 1.7 SW 35 52 19 28 1008.1 - 2.2
01/03:19am 14.3 7.8 11.7 84 1.4 SW 37 56 20 30 1007.9 - 2.2
01/03:00am 14.4 7.5 12.9 91 0.8 SW 41 57 22 31 1007.6 1007.6 2.0
01/02:57am 14.4 7.1 12.9 91 0.8 SW 43 57 23 31 1007.6 - 2.0
01/02:30am 14.5 9.0 13.6 94 0.5 W 35 44 19 24 1007.5 - 1.6
01/02:16am 14.9 9.5 12.9 88 1.1 W 33 43 18 23 1007.5 - 1.4
01/02:00am 15.7 11.8 12.2 80 1.9 W 24 30 13 16 1007.3 - 1.4
01/01:30am 15.8 11.0 11.5 75 2.3 W 28 33 15 18 1007.5 - 1.4
01/01:00am 15.9 10.9 11.0 72 2.6 WSW 28 32 15 17 1007.7 - 1.4
01/12:30am 16.0 12.6 12.4 79 2.0 WSW 22 30 12 16 1007.5 - 1.4
01/12:00am 15.9 13.1 12.5 80 1.9 SW 19 24 10 13 1007.1 1007.1 1.4
 
Date/Time
CDT
Temp
°C
App
Temp
°C
Dew
Point
Rel
Hum
%
Delta-T
°C
Wind Press
QNH
hPa
Press
MSL
hPa
Rain
since 9 am
mm
Dir
 
Spd
km/h
Gust
km/h
Spd
kts
Gust
kts
31/11:30pm 16.1 13.7 12.7 80 1.9 WSW 17 19 9 10 1006.7 - 1.2
31/11:00pm 15.5 14.7 12.8 84 1.5 WSW 9 11 5 6 1006.1 - 1.2
31/10:30pm 15.3 16.3 13.1 87 1.2 CALM 0 0 0 0 1005.7 - 1.2
31/10:00pm 15.2 13.4 13.4 89 1.0 S 15 19 8 10 1005.3 - 1.2
31/09:30pm 15.7 12.4 12.8 83 1.6 SSW 22 30 12 16 1006.4 - 0.6
31/09:00pm 17.3 13.6 13.8 80 2.0 SSW 26 37 14 20 1006.2 1006.2 0.0
31/08:30pm 17.5 13.2 13.2 76 2.4 SSW 28 41 15 22 1005.6 - 0.0
31/08:00pm 17.7 10.8 14.0 79 2.1 SW 43 54 23 29 1004.9 - 0.0
31/07:30pm 18.0 15.6 15.5 85 1.5 SW 22 32 12 17 1003.5 - 0.0
31/07:15pm 17.8 14.1 14.9 83 1.7 SW 28 39 15 21 1002.5 - 0.0
31/07:00pm 17.9 13.8 14.8 82 1.8 SSW 30 41 16 22 1002.8 - 0.0
31/06:42pm 18.9 14.4 15.5 80 2.0 SW 33 41 18 22 1002.8 - 0.0
31/06:30pm 19.4 15.1 14.4 73 2.9 SW 30 43 16 23 1002.4 - 0.0
31/06:00pm 21.6 19.0 12.0 54 5.4 SSW 17 24 9 13 1001.4 1001.4 0.0
31/05:30pm 22.1 18.4 11.4 50 6.0 SSW 22 30 12 16 1000.7 - 0.0
31/05:00pm 23.4 18.7 10.6 44 7.1 SSW 26 35 14 19 1000.7 - 0.0
31/04:30pm 23.3 18.0 9.8 42 7.4 SSW 28 35 15 19 1000.8 - 0.0
31/04:00pm 23.1 16.0 8.2 38 7.9 SW 35 48 19 26 1001.0 - 0.0
31/03:30pm 25.2 20.3 9.8 37 8.5 SW 26 33 14 18 1000.5 - 0.0
31/03:00pm 26.6 22.8 8.9 32 9.7 SW 19 22 10 12 1000.8 1000.8 0.0
31/02:30pm 27.8 24.6 10.0 32 10.0 W 17 22 9 12 1001.2 - 0.0
31/02:00pm 28.3 22.8 9.2 30 10.6 W 28 35 15 19 1001.3 - 0.0
31/01:30pm 30.2 23.5 7.5 24 12.3 WNW 32 39 17 21 1001.2 - 0.0
31/01:23pm 29.6 23.2 8.4 26 11.6 WNW 32 39 17 21 1001.1 - 0.0
31/01:00pm 32.5 23.4 1.6 14 15.4 NNW 39 48 21 26 1001.2 - 0.0
31/12:30pm 32.5 23.5 -2.6 10 16.3 NNW 35 44 19 24 1001.6 - 0.0
31/12:11pm 32.8 24.0 -4.4 9 16.8 N 33 52 18 28 1001.9 - 0.0
31/12:00pm 33.5 25.7 -3.8 9 17.2 NNW 28 37 15 20 1002.2 1002.2 0.0
31/11:30am 33.0 25.2 -3.7 9 16.8 N 28 35 15 19 1002.6 - 0.0
31/11:00am 31.7 23.4 -2.0 11 15.7 NNE 32 43 17 23 1003.0 - 0.0
31/10:30am 31.2 22.9 -1.9 11 15.4 NNE 32 46 17 25 1003.3 - 0.0
31/10:00am 29.1 21.2 -1.5 13 14.1 NNE 30 41 16 22 1003.6 - 0.0
31/09:30am 28.5 20.8 -0.4 15 13.6 NNE 30 37 16 20 1004.2 - 0.0
31/09:00am 27.1 19.3 -0.8 16 12.9 NNE 30 39 16 21 1004.4 1004.4 0.0
31/08:30am 26.5 20.8 0.7 18 12.2 NE 20 26 11 14 1004.7 - 0.0
31/08:00am 24.9 19.0 1.9 22 11.0 NNE 22 30 12 16 1005.1 - 0.0
31/07:30am 22.3 17.1 2.5 27 9.4 NE 19 26 10 14 1005.1 - 0.0
31/07:00am 20.4 15.0 2.7 31 8.3 NE 20 26 11 14 1005.3 - 0.0
31/06:30am 17.5 12.5 4.5 42 6.2 NNE 20 28 11 15 1005.5 - 0.0
31/06:00am 17.9 13.6 5.1 43 6.2 NNE 17 20 9 11 1005.7 1005.7 0.0
31/05:54am 18.1 14.1 4.8 41 6.4 NNE 15 19 8 10 1005.7 - 0.0
31/05:30am 13.1 10.7 10.0 81 1.6 NE 13 17 7 9 1006.1 - 0.0
31/05:00am 13.2 12.1 9.9 80 1.7 NNE 6 7 3 4 1006.8 - 0.0
31/04:30am 13.1 11.8 10.0 81 1.6 ENE 7 9 4 5 1007.3 - 0.0
31/04:00am 14.1 14.4 10.9 81 1.7 CALM 0 0 0 0 1007.4 - 0.0
31/03:30am 14.6 13.3 11.4 81 1.7 S 9 11 5 6 1007.6 - 0.0
31/03:00am 14.3 13.6 11.3 82 1.6 E 6 7 3 4 1007.9 1007.9 0.0
31/02:30am 15.2 14.4 11.7 79 1.9 NE 7 9 4 5 1008.2 - 0.0
31/02:00am 14.9 13.9 10.9 77 2.1 NE 7 9 4 5 1008.5 - 0.0
31/01:30am 14.6 15.0 11.2 80 1.8 CALM 0 0 0 0 1009.3 - 0.0
31/01:00am 15.7 16.1 11.4 75 2.3 CALM 0 0 0 0 1010.0 - 0.0
31/12:30am 16.7 15.6 11.9 73 2.6 SW 9 11 5 6 1010.2 - 0.0
31/12:00am 17.4 16.5 10.7 65 3.6 N 6 9 3 5 1010.4 1010.4 0.0
 
Date/Time
CDT
Temp
°C
App
Temp
°C
Dew
Point
Rel
Hum
%
Delta-T
°C
Wind Press
QNH
hPa
Press
MSL
hPa
Rain
since 9 am
mm
Dir
 
Spd
km/h
Gust
km/h
Spd
kts
Gust
kts
30/11:30pm 17.3 16.2 10.6 64 3.6 E 7 9 4 5 1010.7 - 0.0
30/11:00pm 17.5 16.4 10.8 65 3.6 SE 7 9 4 5 1010.9 - 0.0
30/10:30pm 16.9 15.3 10.3 65 3.5 ENE 9 9 5 5 1011.4 - 0.0
30/10:00pm 17.0 17.5 11.5 70 3.0 CALM 0 0 0 0 1011.9 - 0.0
30/09:30pm 17.0 16.9 10.8 67 3.3 NE 2 7 1 4 1011.9 - 0.0
30/09:00pm 17.6 16.8 11.1 65 3.5 NE 6 9 3 5 1011.7 1011.7 0.0
30/08:30pm 17.7 18.0 10.8 64 3.7 CALM 0 0 0 0 1011.5 - 0.0
30/08:00pm 18.1 17.1 11.1 63 3.8 S 7 9 4 5 1011.4 - 0.0
30/07:30pm 19.3 17.8 10.4 56 4.8 SSW 9 11 5 6 1011.4 - 0.0
30/07:00pm 20.1 18.4 9.8 51 5.5 SW 9 11 5 6 1011.6 - 0.0
30/06:30pm 20.0 17.4 9.5 50 5.6 SW 13 17 7 9 1011.7 - 0.0
30/06:00pm 20.1 17.6 9.6 51 5.6 SSW 13 17 7 9 1012.1 1012.1 0.0
30/05:30pm 20.1 17.2 9.8 51 5.5 SSW 15 19 8 10 1012.3 - 0.0
30/05:00pm 19.3 15.9 11.3 60 4.4 SW 20 28 11 15 1012.5 - 0.0
30/04:30pm 19.3 15.1 11.0 58 4.5 SSW 24 32 13 17 1012.5 - 0.0
30/04:00pm 19.9 15.3 11.1 57 4.8 SW 26 30 14 16 1012.5 - 0.0
30/03:30pm 19.9 15.7 11.1 57 4.8 SW 24 28 13 15 1012.7 - 0.0
30/03:00pm 21.4 19.3 9.9 48 6.2 WNW 11 17 6 9 1013.2 1013.2 0.0
30/02:30pm 21.1 19.3 9.3 46 6.3 W 9 13 5 7 1013.5 - 0.0
30/02:00pm 20.1 17.5 10.7 54 5.1 WSW 15 19 8 10 1014.3 - 0.0
30/01:30pm 19.7 17.1 10.7 56 4.9 WSW 15 19 8 10 1014.6 - 0.0
30/01:00pm 19.1 16.1 10.6 58 4.6 WSW 17 24 9 13 1015.1 - 0.0
30/12:30pm 18.6 15.2 10.6 59 4.3 WSW 19 26 10 14 1015.5 - 0.0
30/12:00pm 18.3 14.7 10.7 61 4.1 WSW 20 26 11 14 1015.8 1015.8 0.0
30/11:30am 19.2 16.7 10.9 58 4.5 W 15 22 8 12 1016.0 - 0.0
30/11:00am 19.0 17.5 10.7 58 4.5 W 9 15 5 8 1016.0 - 0.0
30/10:30am 18.0 15.7 10.3 60 4.1 SW 13 20 7 11 1016.3 - 0.0
30/10:00am 17.9 16.5 10.8 63 3.8 WSW 9 13 5 7 1016.3 - 0.0
30/09:30am 17.5 16.6 10.8 65 3.6 NE 6 11 3 6 1016.1 - 0.0
30/09:00am 17.0 16.2 11.0 68 3.2 E 6 9 3 5 1016.6 1016.6 0.0
30/08:30am 15.3 14.3 11.0 75 2.3 SSW 7 9 4 5 1017.0 - 0.0
30/08:00am 13.8 13.2 10.3 79 1.8 S 4 9 2 5 1017.0 - 0.0
30/07:30am 12.7 11.1 10.2 85 1.3 ESE 9 9 5 5 1016.6 - 0.0
30/07:00am 11.4 10.2 9.4 87 1.0 S 6 11 3 6 1016.4 - 0.0
30/06:30am 10.2 7.8 8.6 90 0.8 ENE 11 15 6 8 1015.5 - 0.0
30/06:00am 10.2 7.4 8.6 90 0.8 NNE 13 15 7 8 1015.3 1015.3 0.0
30/05:30am 9.1 7.0 8.1 93 0.5 E 9 9 5 5 1015.8 - 0.0
30/05:00am 10.2 8.3 9.0 92 0.6 S 9 9 5 5 1016.1 - 0.0
30/04:30am 10.6 10.4 9.2 91 0.7 CALM 0 0 0 0 1015.7 - 0.0
30/04:00am 10.6 10.1 9.2 91 0.7 ENE 2 7 1 4 1015.5 - 0.0
30/03:30am 10.9 10.5 9.7 92 0.6 NE 2 7 1 4 1015.4 - 0.0
30/03:00am 10.7 10.6 9.3 91 0.7 CALM 0 0 0 0 1015.6 1015.6 0.0
30/02:30am 11.4 11.4 9.8 90 0.8 CALM 0 6 0 3 1015.8 - 0.0
30/02:00am 11.3 11.3 9.7 90 0.8 CALM 0 9 0 5 1015.9 - 0.0
30/01:30am 12.5 12.6 10.2 86 1.2 CALM 0 0 0 0 1016.5 - 0.0
30/01:00am 13.1 12.0 10.6 85 1.3 SE 7 11 4 6 1016.4 - 0.0
30/12:30am 13.6 11.8 10.7 82 1.5 S 11 13 6 7 1016.9 - 0.0
30/12:00am 14.1 12.3 10.7 80 1.8 S 11 15 6 8 1017.0 1017.0 0.0
 
Date/Time
CDT
Temp
°C
App
Temp
°C
Dew
Point
Rel
Hum
%
Delta-T
°C
Wind Press
QNH
hPa
Press
MSL
hPa
Rain
since 9 am
mm
Dir
 
Spd
km/h
Gust
km/h
Spd
kts
Gust
kts
29/11:30pm 14.5 12.7 10.9 79 1.9 S 11 15 6 8 1017.0 - 0.0
29/11:00pm 15.1 13.3 11.0 76 2.2 S 11 13 6 7 1017.2 - 0.0
29/10:30pm 15.6 13.8 10.7 72 2.6 SSW 11 13 6 7 1017.3 - 0.0
29/10:00pm 15.8 13.7 11.1 73 2.5 SSW 13 17 7 9 1017.3 - 0.0
29/09:30pm 15.9 13.7 10.8 71 2.7 SSW 13 17 7 9 1017.1 - 0.0
29/09:00pm 16.4 13.4 10.8 69 3.0 SSW 17 24 9 13 1017.0 1017.0 0.0
29/08:30pm 16.8 13.5 11.0 68 3.1 SSW 19 24 10 13 1016.9 - 0.0
29/08:00pm 17.1 14.3 11.2 68 3.2 SSW 17 20 9 11 1017.0 - 0.0
29/07:30pm 17.7 14.1 10.6 63 3.8 SSW 20 28 11 15 1016.8 - 0.0
29/07:00pm 18.3 14.4 9.6 57 4.6 SSW 20 30 11 16 1016.4 - 0.0
29/06:30pm 18.0 14.5 10.3 60 4.1 SSW 19 24 10 13 1016.3 - 0.0
29/06:00pm 18.0 14.6 10.7 62 3.9 SSW 19 28 10 15 1016.4 1016.4 0.0
29/05:30pm 18.7 15.1 10.7 59 4.3 SSW 20 26 11 14 1016.4 - 0.0
29/05:00pm 19.2 16.1 11.6 61 4.2 SW 19 24 10 13 1016.3 - 0.0
29/04:30pm 20.4 18.1 10.4 52 5.4 SW 13 19 7 10 1016.4 - 0.0
29/04:00pm 20.7 17.6 8.7 46 6.3 W 15 19 8 10 1016.6 - 0.0
29/03:30pm 20.7 18.2 8.2 44 6.5 SW 11 17 6 9 1016.7 - 0.0
29/03:00pm 20.9 18.2 7.5 42 6.9 W 11 15 6 8 1017.2 1017.2 0.0
29/02:30pm 20.4 18.0 8.8 47 6.1 W 11 17 6 9 1017.5 - 0.0
29/02:00pm 19.5 17.2 10.6 56 4.8 W 13 17 7 9 1017.9 - 0.0
29/01:30pm 19.5 16.2 10.8 57 4.7 W 19 26 10 14 1018.4 - 0.0
29/01:00pm 18.8 15.3 10.8 59 4.3 W 20 30 11 16 1018.6 - 0.0

Other Formats:

Comma delimited format used in spreadsheet applications
http://www.bom.gov.au/fwo/IDS60801/IDS60801.94672.axf

JavaScript Object Notation format (JSON) in row-major order
http://www.bom.gov.au/fwo/IDS60801/IDS60801.94672.json